createdAt,value
2019-02-04T00:01:07.022Z,23.00
2019-02-04T00:03:37.751Z,21.93
2019-02-04T00:06:07.160Z,23.33
2019-02-04T00:08:49.257Z,22.10
2019-02-04T00:11:18.669Z,21.80
2019-02-04T00:13:48.096Z,21.97
2019-02-04T00:16:17.523Z,22.73
2019-02-04T00:19:06.702Z,23.53
2019-02-04T00:21:48.851Z,26.07
2019-02-04T00:24:18.298Z,25.30
2019-02-04T00:26:51.569Z,23.70
2019-02-04T00:29:32.582Z,24.23
2019-02-04T00:32:06.474Z,23.33
2019-02-04T00:34:36.091Z,23.50
2019-02-04T00:37:06.002Z,23.07
2019-02-04T00:39:35.466Z,21.77
2019-02-04T00:42:04.875Z,23.17
2019-02-04T00:44:34.315Z,23.13
2019-02-04T00:47:06.384Z,23.47
2019-02-04T00:49:35.822Z,23.67
2019-02-04T00:52:24.644Z,22.20
2019-02-04T00:54:54.068Z,22.23
2019-02-04T00:57:45.675Z,24.27
2019-02-04T01:03:23.091Z,22.57
2019-02-04T01:05:55.234Z,23.90
2019-02-04T01:08:24.765Z,22.40
2019-02-04T01:10:54.206Z,23.00
2019-02-04T01:13:23.614Z,24.70
2019-02-04T01:15:55.713Z,22.50
2019-02-04T01:18:30.164Z,25.27
2019-02-04T01:20:59.591Z,25.13
2019-02-04T01:23:29.001Z,27.27
2019-02-04T01:25:59.266Z,25.83
2019-02-04T01:28:28.717Z,25.33
2019-02-04T01:30:58.183Z,24.47
2019-02-04T01:33:46.985Z,27.37
2019-02-04T01:36:16.802Z,25.13
2019-02-04T01:38:46.200Z,25.33
2019-02-04T01:41:15.606Z,26.17
2019-02-04T01:43:45.024Z,26.13
2019-02-04T01:46:14.462Z,27.23
2019-02-04T01:48:48.421Z,27.23
2019-02-04T01:51:17.859Z,28.67
2019-02-04T01:53:47.497Z,26.53
2019-02-04T01:56:17.002Z,28.40
2019-02-04T01:58:46.549Z,26.63
2019-02-04T02:01:16.056Z,25.60
2019-02-04T02:03:47.104Z,26.63
2019-02-04T02:06:16.507Z,26.97
2019-02-04T02:08:46.036Z,27.60
2019-02-04T02:11:15.616Z,28.30
2019-02-04T02:13:45.019Z,26.17
2019-02-04T02:16:14.553Z,28.00
2019-02-04T02:18:43.971Z,27.67
2019-02-04T02:21:16.464Z,27.10
2019-02-04T02:23:46.015Z,26.80
2019-02-04T02:26:28.110Z,25.57
2019-02-04T02:28:57.520Z,25.83
2019-02-04T02:31:45.257Z,26.80
2019-02-04T02:34:23.783Z,26.67
2019-02-04T02:36:57.274Z,27.83
2019-02-04T02:39:26.727Z,26.63
2019-02-04T02:41:56.173Z,27.80
2019-02-04T02:44:43.934Z,32.20
2019-02-04T02:47:16.285Z,41.37
2019-02-04T02:49:46.223Z,44.10
2019-02-04T02:52:15.811Z,34.97
2019-02-04T02:54:45.336Z,31.90
2019-02-04T02:57:14.735Z,31.63
2019-02-04T02:59:44.224Z,30.43
2019-02-04T03:02:24.443Z,29.73
2019-02-04T03:04:53.993Z,27.97
2019-02-04T03:07:28.001Z,27.00
2019-02-04T03:09:57.421Z,30.17
2019-02-04T03:12:26.842Z,29.33
2019-02-04T03:14:56.270Z,28.77
2019-02-04T03:17:26.032Z,28.60
2019-02-04T03:19:57.012Z,29.67
2019-02-04T03:22:26.474Z,28.40
2019-02-04T03:24:55.939Z,29.43
2019-02-04T03:27:25.401Z,29.63
2019-02-04T03:29:54.806Z,28.53
2019-02-04T03:32:24.244Z,29.77
2019-02-04T03:35:06.181Z,29.67
2019-02-04T03:37:54.001Z,28.67
2019-02-04T03:40:27.187Z,29.07
2019-02-04T03:42:58.263Z,27.17
2019-02-04T03:45:27.733Z,28.60
2019-02-04T03:48:06.128Z,28.87
2019-02-04T03:50:37.371Z,29.30
2019-02-04T03:53:06.819Z,29.87
2019-02-04T03:55:36.313Z,28.83
2019-02-04T03:58:05.769Z,29.77
2019-02-04T04:00:48.645Z,28.00
2019-02-04T04:03:18.052Z,28.97
2019-02-04T04:05:47.553Z,28.97
2019-02-04T04:08:17.060Z,27.33
2019-02-04T04:10:46.477Z,29.00
2019-02-04T04:13:15.916Z,27.23
2019-02-04T04:15:45.684Z,28.93
2019-02-04T04:18:34.589Z,28.13
2019-02-04T04:21:14.951Z,29.50
2019-02-04T04:23:44.776Z,27.97
2019-02-04T04:26:14.199Z,28.70
2019-02-04T04:28:45.366Z,26.90
2019-02-04T04:31:14.848Z,27.93
2019-02-04T04:33:44.280Z,28.83
2019-02-04T04:36:22.680Z,27.27
2019-02-04T04:38:52.384Z,26.80
2019-02-04T04:41:21.860Z,28.47
2019-02-04T04:43:51.386Z,27.33
2019-02-04T04:46:20.830Z,28.30
2019-02-04T04:48:55.701Z,27.17
2019-02-04T04:51:43.766Z,27.97
2019-02-04T04:54:28.228Z,27.90
2019-02-04T04:56:58.057Z,27.83
2019-02-04T04:59:27.507Z,27.07
2019-02-04T05:01:56.966Z,27.93
2019-02-04T05:04:26.557Z,27.33
2019-02-04T05:06:56.020Z,27.63
2019-02-04T05:09:25.471Z,28.67
2019-02-04T05:11:55.272Z,28.30
2019-02-04T05:14:24.790Z,26.87
2019-02-04T05:16:54.185Z,27.30
2019-02-04T05:19:28.168Z,27.57
2019-02-04T05:21:57.620Z,25.67
2019-02-04T05:24:27.417Z,27.73
2019-02-04T05:26:56.817Z,27.33
2019-02-04T05:29:26.965Z,27.50
2019-02-04T05:31:56.409Z,29.87
2019-02-04T05:34:25.959Z,28.63
2019-02-04T05:36:55.382Z,27.60
2019-02-04T05:39:25.242Z,26.53
2019-02-04T05:41:54.726Z,29.63
2019-02-04T05:44:33.410Z,28.73
2019-02-04T05:47:09.014Z,27.77
2019-02-04T05:49:38.965Z,26.57
2019-02-04T05:52:08.406Z,29.20
2019-02-04T05:54:37.889Z,27.57
2019-02-04T05:57:20.199Z,28.83
2019-02-04T05:59:49.686Z,27.77
2019-02-04T06:02:19.586Z,28.90
2019-02-04T06:04:56.613Z,27.50
2019-02-04T06:07:26.041Z,27.67
2019-02-04T06:09:58.301Z,28.27
2019-02-04T06:12:27.857Z,27.73
2019-02-04T06:15:10.891Z,26.87
2019-02-04T06:17:40.284Z,27.20
2019-02-04T06:20:18.513Z,28.13
2019-02-04T06:22:47.961Z,27.17
2019-02-04T06:25:17.403Z,29.03
2019-02-04T06:27:46.838Z,29.47
2019-02-04T06:30:17.465Z,28.37
2019-02-04T06:32:47.051Z,29.30
2019-02-04T06:35:17.091Z,28.83
2019-02-04T06:37:47.392Z,28.67
2019-02-04T06:40:18.128Z,29.10
2019-02-04T06:42:47.557Z,28.93
2019-02-04T06:45:18.002Z,29.10
2019-02-04T06:47:47.799Z,27.63
2019-02-04T06:50:19.163Z,26.23
2019-02-04T06:52:50.221Z,27.63
2019-02-04T06:55:25.501Z,27.50
2019-02-04T06:57:59.818Z,28.40
2019-02-04T07:00:40.008Z,28.07
2019-02-04T07:03:22.892Z,28.63
2019-02-04T07:05:58.484Z,26.43
2019-02-04T07:08:28.160Z,27.73
2019-02-04T07:11:00.151Z,26.60
2019-02-04T07:13:29.688Z,27.03
2019-02-04T07:16:05.067Z,26.60
2019-02-04T07:18:34.676Z,27.57
2019-02-04T07:21:21.068Z,26.97
2019-02-04T07:23:50.711Z,27.57
2019-02-04T07:26:20.150Z,26.13
2019-02-04T07:29:02.556Z,26.23
2019-02-04T07:31:34.546Z,26.97
2019-02-04T07:34:39.215Z,25.03
2019-02-04T07:37:11.486Z,24.13
2019-02-04T07:39:40.995Z,25.57
2019-02-04T07:42:11.689Z,26.27
2019-02-04T07:44:41.216Z,25.97
2019-02-04T07:47:28.697Z,25.87
2019-02-04T07:50:17.505Z,26.70
2019-02-04T07:52:47.034Z,25.47
2019-02-04T07:55:16.506Z,24.90
2019-02-04T07:57:45.946Z,25.07
2019-02-04T08:00:18.655Z,25.93
2019-02-04T08:02:48.124Z,25.20
2019-02-04T08:05:17.592Z,23.87
2019-02-04T08:08:05.769Z,24.60
2019-02-04T08:10:40.030Z,25.13
2019-02-04T08:13:17.186Z,25.13
2019-02-04T08:15:47.450Z,26.93
2019-02-04T08:18:17.125Z,26.00
2019-02-04T08:20:48.668Z,24.47
2019-02-04T08:23:27.743Z,23.97
2019-02-04T08:25:57.259Z,23.67
2019-02-04T08:28:26.777Z,23.47
2019-02-04T08:31:09.375Z,23.40
2019-02-04T08:33:57.175Z,23.57
2019-02-04T08:36:26.793Z,23.07
2019-02-04T08:38:56.215Z,22.73
2019-02-04T08:41:25.740Z,23.27
2019-02-04T08:43:55.544Z,22.80
2019-02-04T08:46:25.194Z,22.30
2019-02-04T08:48:54.700Z,22.37
2019-02-04T08:51:24.162Z,22.53
2019-02-04T08:53:56.239Z,22.93
2019-02-04T08:56:25.729Z,23.23
2019-02-04T08:58:55.187Z,22.67
2019-02-04T09:01:24.805Z,22.37
2019-02-04T09:03:54.213Z,21.20
2019-02-04T09:06:28.294Z,22.63
2019-02-04T09:08:57.741Z,21.80
2019-02-04T09:11:27.219Z,21.27
2019-02-04T09:13:56.680Z,22.17
2019-02-04T09:16:26.086Z,23.50
2019-02-04T09:18:55.537Z,22.23
2019-02-04T09:21:24.944Z,22.10
2019-02-04T09:23:54.668Z,21.17
2019-02-04T09:26:24.101Z,20.63
2019-02-04T09:28:56.568Z,21.63
2019-02-04T09:31:27.609Z,21.80
2019-02-04T09:34:01.842Z,20.90
2019-02-04T09:36:31.260Z,21.63
2019-02-04T09:39:00.761Z,19.70
2019-02-04T09:41:30.306Z,21.00
2019-02-04T09:44:01.148Z,19.77
2019-02-04T09:46:30.668Z,20.03
2019-02-04T09:49:00.146Z,20.90
2019-02-04T09:51:29.710Z,20.30
2019-02-04T09:54:07.880Z,19.80
2019-02-04T09:56:37.678Z,19.97
2019-02-04T09:59:07.108Z,19.87
2019-02-04T10:01:39.365Z,19.50
2019-02-04T10:04:10.473Z,19.80
2019-02-04T10:06:39.978Z,19.00
2019-02-04T10:09:12.620Z,21.20
2019-02-04T10:11:46.786Z,20.50
2019-02-04T10:14:16.216Z,19.10
2019-02-04T10:16:45.761Z,18.43
2019-02-04T10:19:15.205Z,18.97
2019-02-04T10:21:45.271Z,18.83
2019-02-04T10:24:14.828Z,19.30
2019-02-04T10:26:44.418Z,17.70
2019-02-04T10:29:22.801Z,17.90
2019-02-04T10:31:52.400Z,17.83
2019-02-04T10:34:26.525Z,18.97
2019-02-04T10:36:56.086Z,17.10
2019-02-04T10:39:25.610Z,18.17
2019-02-04T10:41:55.130Z,17.70
2019-02-04T10:44:26.019Z,17.30
2019-02-04T10:46:55.583Z,17.07
2019-02-04T10:49:25.014Z,18.43
2019-02-04T10:52:02.038Z,17.70
2019-02-04T10:54:31.510Z,16.60
2019-02-04T10:57:00.979Z,16.10
2019-02-04T10:59:31.313Z,16.30
2019-02-04T11:02:00.957Z,16.97
2019-02-04T11:04:30.434Z,15.80
2019-02-04T11:07:00.024Z,15.30
2019-02-04T11:09:29.552Z,15.93
2019-02-04T11:11:59.111Z,15.83
2019-02-04T11:14:28.675Z,15.33
2019-02-04T11:17:08.983Z,15.97
2019-02-04T11:19:38.710Z,14.63
2019-02-04T11:22:08.327Z,14.30
2019-02-04T11:24:41.019Z,14.90
2019-02-04T11:27:10.592Z,12.77
2019-02-04T11:29:40.148Z,13.57
2019-02-04T11:32:09.597Z,12.83
2019-02-04T11:34:41.252Z,12.50
2019-02-04T11:37:10.791Z,12.07
2019-02-04T11:39:40.411Z,12.07
2019-02-04T11:42:09.947Z,12.10
2019-02-04T11:44:47.630Z,12.30
2019-02-04T11:47:17.068Z,12.50
2019-02-04T11:49:46.604Z,11.10
2019-02-04T11:52:16.033Z,12.00
2019-02-04T11:54:45.430Z,11.77
2019-02-04T11:57:14.890Z,11.40
2019-02-04T11:59:44.524Z,10.40
2019-02-04T12:02:13.944Z,10.27
2019-02-04T12:04:51.091Z,10.50
2019-02-04T12:07:20.843Z,11.17
2019-02-04T12:09:50.516Z,10.07
2019-02-04T12:12:20.103Z,10.47
2019-02-04T12:14:49.518Z,10.20
2019-02-04T12:17:19.051Z,8.43
2019-02-04T12:19:48.486Z,8.47
2019-02-04T12:22:17.924Z,8.13
2019-02-04T12:24:47.389Z,7.37
2019-02-04T12:27:16.832Z,7.63
2019-02-04T12:29:46.477Z,6.80
2019-02-04T12:32:20.966Z,7.10
2019-02-04T12:34:50.777Z,6.63
2019-02-04T12:37:20.236Z,7.90
2019-02-04T12:39:49.651Z,7.20
2019-02-04T12:42:19.071Z,6.57
2019-02-04T12:44:48.640Z,7.33
2019-02-04T12:47:18.245Z,7.07
2019-02-04T12:49:56.805Z,7.00
2019-02-04T12:52:26.265Z,6.67
2019-02-04T12:55:10.375Z,6.40
2019-02-04T12:57:39.855Z,6.57
2019-02-04T13:00:15.379Z,6.33
2019-02-04T13:02:44.809Z,6.90
2019-02-04T13:05:31.163Z,6.70
2019-02-04T13:08:00.683Z,6.13
2019-02-04T13:10:30.221Z,5.53
2019-02-04T13:13:08.402Z,5.70
2019-02-04T13:15:38.114Z,5.40
2019-02-04T13:18:07.751Z,5.60
2019-02-04T13:20:37.462Z,5.57
2019-02-04T13:23:06.982Z,4.77
2019-02-04T13:25:36.450Z,4.97
2019-02-04T13:28:07.779Z,4.97
2019-02-04T13:30:37.386Z,4.77
2019-02-04T13:33:06.957Z,4.50
2019-02-04T13:35:36.699Z,4.50
2019-02-04T13:38:06.112Z,4.77
2019-02-04T13:40:53.712Z,4.97
2019-02-04T13:43:23.340Z,4.77
2019-02-04T13:45:56.134Z,4.80
2019-02-04T13:48:25.539Z,4.60
2019-02-04T13:50:55.155Z,4.37
2019-02-04T13:53:26.916Z,5.10
2019-02-04T13:55:55.760Z,4.90
2019-02-04T13:58:25.198Z,4.70
2019-02-04T14:00:54.671Z,4.00
2019-02-04T14:03:24.075Z,4.77
2019-02-04T14:05:56.306Z,4.50
2019-02-04T14:08:30.477Z,4.80
2019-02-04T14:10:59.943Z,4.70
2019-02-04T14:13:40.125Z,4.83
2019-02-04T14:16:09.647Z,4.80
2019-02-04T14:18:57.692Z,4.93
2019-02-04T14:21:27.089Z,4.60
2019-02-04T14:23:56.513Z,5.07
2019-02-04T14:26:28.672Z,4.60
2019-02-04T14:28:57.060Z,4.90
2019-02-04T14:31:26.506Z,5.07
2019-02-04T14:33:58.083Z,4.80
2019-02-04T14:36:27.093Z,5.13
2019-02-04T14:38:56.495Z,5.00
2019-02-04T14:41:25.901Z,4.67
2019-02-04T14:43:55.459Z,4.43
2019-02-04T14:46:28.029Z,4.60
2019-02-04T14:49:00.619Z,5.20
2019-02-04T14:51:33.183Z,5.13
2019-02-04T14:54:08.311Z,5.10
2019-02-04T14:56:41.294Z,4.73
2019-02-04T14:59:13.860Z,5.60
2019-02-04T15:01:49.337Z,5.37
2019-02-04T15:04:21.968Z,5.67
2019-02-04T15:06:54.552Z,5.40
2019-02-04T15:09:27.398Z,6.00
2019-02-04T15:12:00.039Z,5.90
2019-02-04T15:14:35.687Z,6.00
2019-02-04T15:17:08.356Z,6.43
2019-02-04T15:19:41.226Z,6.13
2019-02-04T15:22:13.863Z,6.47
2019-02-04T15:24:49.714Z,6.50
2019-02-04T15:27:22.269Z,5.77
2019-02-04T15:29:55.341Z,6.40
2019-02-04T15:32:29.598Z,6.40
2019-02-04T15:38:30.005Z,6.70
2019-02-04T15:41:02.572Z,6.53
2019-02-04T15:43:37.912Z,6.30
2019-02-04T15:46:10.522Z,6.20
2019-02-04T15:48:43.178Z,6.53
2019-02-04T15:51:34.180Z,6.47
2019-02-04T15:54:17.842Z,6.87
2019-02-04T15:56:47.323Z,6.67
2019-02-04T15:59:18.410Z,6.53
2019-02-04T16:01:47.778Z,5.70
2019-02-04T16:04:20.357Z,5.90
2019-02-04T16:06:49.762Z,5.57
2019-02-04T16:09:24.892Z,5.23
2019-02-04T16:11:54.351Z,5.10
2019-02-04T16:14:23.814Z,5.23
2019-02-04T16:16:59.557Z,4.70
2019-02-04T16:19:29.036Z,5.40
2019-02-04T16:21:58.544Z,5.13
2019-02-04T16:24:27.976Z,5.03
2019-02-04T16:26:57.430Z,4.40
2019-02-04T16:29:33.232Z,4.87
2019-02-04T16:32:10.430Z,4.47
2019-02-04T16:34:40.155Z,4.53
2019-02-04T16:37:12.214Z,5.60
2019-02-04T16:39:43.496Z,4.77
2019-02-04T16:42:20.615Z,5.10
2019-02-04T16:44:50.037Z,5.90
2019-02-04T16:47:19.461Z,5.40
2019-02-04T16:49:55.272Z,5.07
2019-02-04T16:52:25.107Z,4.80
2019-02-04T16:54:54.493Z,5.10
2019-02-04T16:57:34.814Z,5.30
2019-02-04T17:00:07.971Z,5.20
2019-02-04T17:02:37.382Z,4.83
2019-02-04T17:05:10.334Z,4.53
2019-02-04T17:07:46.955Z,4.73
2019-02-04T17:10:18.502Z,5.00
2019-02-04T17:12:48.070Z,5.47
2019-02-04T17:15:17.496Z,5.40
2019-02-04T17:17:47.384Z,5.27
2019-02-04T17:20:19.685Z,5.30
2019-02-04T17:22:56.363Z,4.80
2019-02-04T17:25:25.931Z,4.70
2019-02-04T17:27:55.373Z,4.53
2019-02-04T17:30:26.078Z,4.90
2019-02-04T17:32:55.699Z,5.00
2019-02-04T17:35:28.296Z,5.30
2019-02-04T17:37:57.717Z,4.83
2019-02-04T17:40:27.163Z,4.00
2019-02-04T17:42:57.837Z,4.37
2019-02-04T17:45:27.368Z,4.77
2019-02-04T17:47:56.851Z,4.93
2019-02-04T17:50:27.845Z,4.50
2019-02-04T17:52:57.249Z,5.53
2019-02-04T17:55:47.645Z,5.70
2019-02-04T17:58:17.062Z,5.10
2019-02-04T18:00:50.959Z,5.80
2019-02-04T18:03:20.370Z,5.70
2019-02-04T18:05:52.862Z,5.90
2019-02-04T18:08:22.397Z,5.30
2019-02-04T18:10:54.927Z,5.67
2019-02-04T18:13:24.361Z,5.57
2019-02-04T18:15:56.362Z,5.47
2019-02-04T18:18:25.809Z,4.57
2019-02-04T18:20:55.195Z,5.00
2019-02-04T18:23:27.279Z,4.87
2019-02-04T18:25:56.693Z,4.77
2019-02-04T18:28:26.131Z,4.93
2019-02-04T18:30:55.673Z,4.57
2019-02-04T18:33:25.146Z,4.87
2019-02-04T18:35:54.597Z,4.50
2019-02-04T18:38:24.193Z,4.20
2019-02-04T18:40:54.081Z,4.73
2019-02-04T18:43:26.453Z,4.33
2019-02-04T18:45:56.016Z,4.80
2019-02-04T18:48:26.002Z,4.67
2019-02-04T18:50:55.580Z,4.60
2019-02-04T18:53:24.988Z,4.80
2019-02-04T18:55:54.395Z,4.83
2019-02-04T18:58:23.798Z,5.30
2019-02-04T19:01:00.710Z,4.97
2019-02-04T19:03:30.146Z,5.57
2019-02-04T19:05:59.559Z,5.70
2019-02-04T19:08:28.992Z,6.37
2019-02-04T19:10:58.483Z,6.47
2019-02-04T19:13:35.837Z,6.50
2019-02-04T19:15:59.149Z,6.57
2019-02-04T19:18:30.515Z,6.80
2019-02-04T19:21:05.345Z,6.20
2019-02-04T19:23:34.861Z,6.07
2019-02-04T19:26:04.471Z,7.07
2019-02-04T19:28:33.862Z,6.57
2019-02-04T19:31:10.900Z,6.23
2019-02-04T19:33:40.358Z,6.80
2019-02-04T19:36:12.725Z,6.93
2019-02-04T19:38:45.920Z,6.57
2019-02-04T19:41:15.971Z,6.37
2019-02-04T19:43:45.389Z,7.30
2019-02-04T19:46:14.859Z,7.00
2019-02-04T19:48:44.256Z,7.23
2019-02-04T19:51:18.675Z,8.23
2019-02-04T19:53:49.711Z,7.17
2019-02-04T19:56:19.158Z,7.67
2019-02-04T19:58:48.619Z,7.33
2019-02-04T20:01:36.508Z,7.77
2019-02-04T20:04:05.971Z,7.60
2019-02-04T20:06:35.380Z,8.30
2019-02-04T20:09:07.133Z,7.93
2019-02-04T20:11:48.983Z,7.63
2019-02-04T20:14:18.700Z,7.47
2019-02-04T20:17:02.269Z,7.37
2019-02-04T20:19:31.670Z,7.47
2019-02-04T20:22:01.094Z,7.67
2019-02-04T20:24:33.191Z,8.07
2019-02-04T20:27:12.682Z,8.00
2019-02-04T20:29:44.928Z,8.30
2019-02-04T20:32:14.470Z,7.70
2019-02-04T20:34:43.875Z,8.03
2019-02-04T20:37:20.948Z,7.83
2019-02-04T20:39:50.448Z,7.67
2019-02-04T20:42:19.952Z,7.40
2019-02-04T20:44:49.360Z,7.77
2019-02-04T20:47:29.738Z,7.67
2019-02-04T20:49:59.456Z,8.50
2019-02-04T20:52:30.170Z,7.70
2019-02-04T20:54:59.622Z,7.50
2019-02-04T20:57:29.082Z,8.07
2019-02-04T20:59:58.510Z,8.40
2019-02-04T21:02:31.286Z,7.97
2019-02-04T21:05:04.506Z,7.23
2019-02-04T21:07:33.951Z,7.40
2019-02-04T21:10:09.203Z,8.57
2019-02-04T21:12:38.611Z,7.83
2019-02-04T21:15:12.211Z,7.90
2019-02-04T21:17:43.239Z,8.60
2019-02-04T21:20:15.541Z,8.63
2019-02-04T21:22:45.010Z,8.50
2019-02-04T21:25:14.446Z,8.10
2019-02-04T21:27:43.849Z,8.13
2019-02-04T21:30:16.217Z,8.10
2019-02-04T21:32:45.643Z,8.23
2019-02-04T21:35:15.137Z,7.27
2019-02-04T21:37:44.595Z,9.03
2019-02-04T21:40:16.372Z,8.80
2019-02-04T21:42:46.282Z,8.50
2019-02-04T21:45:18.241Z,8.57
2019-02-04T21:47:47.797Z,7.50
2019-02-04T21:50:19.789Z,5.17
2019-02-04T21:52:49.307Z,5.27
2019-02-04T21:55:21.272Z,5.73
2019-02-04T21:57:50.881Z,6.27
2019-02-04T22:00:22.545Z,6.30
2019-02-04T22:02:55.268Z,6.83
2019-02-04T22:05:26.756Z,6.57
2019-02-04T22:07:56.238Z,5.60
2019-02-04T22:10:27.372Z,5.73
2019-02-04T22:12:57.153Z,5.43
2019-02-04T22:15:26.656Z,5.20
2019-02-04T22:17:56.059Z,5.50
2019-02-04T22:20:25.627Z,4.93
2019-02-04T22:22:55.072Z,4.60
2019-02-04T22:25:30.295Z,4.50
2019-02-04T22:27:59.714Z,4.20
2019-02-04T22:30:35.446Z,4.30
2019-02-04T22:33:04.869Z,4.37
2019-02-04T22:35:34.317Z,4.07
2019-02-04T22:38:03.877Z,4.10
2019-02-04T22:40:36.155Z,4.53
2019-02-04T22:43:05.593Z,5.03
2019-02-04T22:45:34.999Z,4.87
2019-02-04T22:48:04.553Z,5.20
2019-02-04T22:50:34.074Z,4.80
2019-02-04T22:53:07.524Z,4.43
2019-02-04T22:55:36.953Z,4.40
2019-02-04T22:58:06.355Z,4.47
2019-02-04T23:03:41.088Z,4.03
2019-02-04T23:06:10.515Z,4.90
2019-02-04T23:08:39.915Z,3.87
2019-02-04T23:11:16.894Z,4.13
2019-02-04T23:13:46.366Z,4.30
2019-02-04T23:16:15.785Z,4.63
2019-02-04T23:18:57.398Z,4.80
2019-02-04T23:21:26.818Z,4.37
2019-02-04T23:23:56.695Z,4.87
2019-02-04T23:26:26.320Z,4.97
2019-02-04T23:28:55.718Z,6.03
2019-02-04T23:31:25.332Z,6.93
2019-02-04T23:33:54.760Z,8.07
2019-02-04T23:36:24.185Z,8.40
2019-02-04T23:39:00.069Z,8.63
2019-02-04T23:41:32.054Z,8.43
2019-02-04T23:44:01.462Z,8.63
2019-02-04T23:46:30.955Z,9.60
2019-02-04T23:49:00.367Z,8.90
2019-02-04T23:51:30.308Z,8.97
2019-02-04T23:54:00.919Z,9.63
2019-02-04T23:56:30.734Z,9.47
2019-02-04T23:59:13.063Z,9.40
